sensor_id;sensor_type;location;lat;lon;timestamp;P1;durP1;ratioP1;P2;durP2;ratioP2
2652;SDS011;1336;48.692;9.144;2022-09-01T05:00:35;20.63;;;18.73;;
2652;SDS011;1336;48.692;9.144;2022-09-01T05:01:27;21.27;;;19.48;;
2652;SDS011;1336;48.692;9.144;2022-09-01T05:02:17;22.47;;;20.47;;
2652;SDS011;1336;48.692;9.144;2022-09-01T05:03:09;21.02;;;19.30;;
2652;SDS011;1336;48.692;9.144;2022-09-01T05:04:00;22.13;;;19.77;;
2652;SDS011;1336;48.692;9.144;2022-09-01T05:04:53;20.90;;;19.20;;
2652;SDS011;1336;48.692;9.144;2022-09-01T05:05:47;21.20;;;19.23;;
2652;SDS011;1336;48.692;9.144;2022-09-01T05:06:40;21.52;;;19.73;;
2652;SDS011;1336;48.692;9.144;2022-09-01T05:07:32;21.27;;;19.48;;
2652;SDS011;1336;48.692;9.144;2022-09-01T05:08:27;20.95;;;19.00;;
2652;SDS011;1336;48.692;9.144;2022-09-01T05:09:18;21.97;;;19.77;;
2652;SDS011;1336;48.692;9.144;2022-09-01T05:10:10;23.48;;;21.38;;
2652;SDS011;1336;48.692;9.144;2022-09-01T05:11:02;22.57;;;20.63;;
2652;SDS011;1336;48.692;9.144;2022-09-01T05:11:56;23.15;;;20.77;;
2652;SDS011;1336;48.692;9.144;2022-09-01T05:12:59;21.40;;;19.27;;
2652;SDS011;1336;48.692;9.144;2022-09-01T05:13:58;23.67;;;21.48;;
2652;SDS011;1336;48.692;9.144;2022-09-01T05:14:49;22.10;;;20.20;;
2652;SDS011;1336;48.692;9.144;2022-09-01T05:15:43;21.90;;;19.77;;
2652;SDS011;1336;48.692;9.144;2022-09-01T05:16:35;22.63;;;20.52;;
2652;SDS011;1336;48.692;9.144;2022-09-01T05:17:30;22.02;;;20.05;;
2652;SDS011;1336;48.692;9.144;2022-09-01T05:18:20;26.50;;;21.73;;
2652;SDS011;1336;48.692;9.144;2022-09-01T05:19:13;22.92;;;20.85;;
2652;SDS011;1336;48.692;9.144;2022-09-01T05:20:04;22.87;;;20.90;;
2652;SDS011;1336;48.692;9.144;2022-09-01T05:20:58;23.55;;;21.45;;
2652;SDS011;1336;48.692;9.144;2022-09-01T05:22:00;21.38;;;19.52;;
2652;SDS011;1336;48.692;9.144;2022-09-01T05:22:52;22.25;;;20.35;;
2652;SDS011;1336;48.692;9.144;2022-09-01T05:23:46;23.13;;;21.13;;
2652;SDS011;1336;48.692;9.144;2022-09-01T05:24:40;22.05;;;19.92;;
2652;SDS011;1336;48.692;9.144;2022-09-01T05:25:36;21.90;;;20.00;;
2652;SDS011;1336;48.692;9.144;2022-09-01T05:26:29;21.95;;;19.95;;
2652;SDS011;1336;48.692;9.144;2022-09-01T05:27:23;20.75;;;19.02;;
2652;SDS011;1336;48.692;9.144;2022-09-01T05:28:16;21.60;;;19.80;;
2652;SDS011;1336;48.692;9.144;2022-09-01T05:29:09;22.98;;;20.92;;
2652;SDS011;1336;48.692;9.144;2022-09-01T05:30:03;21.83;;;19.95;;
2652;SDS011;1336;48.692;9.144;2022-09-01T05:30:59;22.17;;;20.17;;
2652;SDS011;1336;48.692;9.144;2022-09-01T05:31:51;21.70;;;19.80;;
2652;SDS011;1336;48.692;9.144;2022-09-01T05:32:44;22.95;;;20.88;;
2652;SDS011;1336;48.692;9.144;2022-09-01T05:33:38;20.88;;;19.13;;
2652;SDS011;1336;48.692;9.144;2022-09-01T05:34:34;22.90;;;20.80;;
2652;SDS011;1336;48.692;9.144;2022-09-01T05:35:27;22.17;;;20.27;;
2652;SDS011;1336;48.692;9.144;2022-09-01T05:36:20;22.38;;;20.48;;
2652;SDS011;1336;48.692;9.144;2022-09-01T05:37:12;21.80;;;19.98;;
2652;SDS011;1336;48.692;9.144;2022-09-01T05:38:05;22.67;;;20.65;;
2652;SDS011;1336;48.692;9.144;2022-09-01T05:39:00;22.20;;;20.30;;
2652;SDS011;1336;48.692;9.144;2022-09-01T05:39:53;23.10;;;21.10;;
2652;SDS011;1336;48.692;9.144;2022-09-01T05:40:45;22.65;;;20.75;;
2652;SDS011;1336;48.692;9.144;2022-09-01T05:41:46;22.05;;;20.23;;
2652;SDS011;1336;48.692;9.144;2022-09-01T05:42:38;21.15;;;19.35;;
2652;SDS011;1336;48.692;9.144;2022-09-01T05:43:30;22.55;;;20.65;;
2652;SDS011;1336;48.692;9.144;2022-09-01T05:44:21;22.48;;;20.45;;
2652;SDS011;1336;48.692;9.144;2022-09-01T05:45:13;22.98;;;21.08;;
2652;SDS011;1336;48.692;9.144;2022-09-01T05:46:10;23.73;;;21.42;;
2652;SDS011;1336;48.692;9.144;2022-09-01T05:47:06;23.00;;;21.02;;
2652;SDS011;1336;48.692;9.144;2022-09-01T05:47:58;22.85;;;20.77;;
2652;SDS011;1336;48.692;9.144;2022-09-01T05:48:51;23.08;;;20.88;;
2652;SDS011;1336;48.692;9.144;2022-09-01T05:49:42;22.60;;;20.20;;
2652;SDS011;1336;48.692;9.144;2022-09-01T05:50:34;23.45;;;21.15;;
2652;SDS011;1336;48.692;9.144;2022-09-01T05:51:29;22.63;;;20.52;;
2652;SDS011;1336;48.692;9.144;2022-09-01T05:52:24;23.90;;;20.90;;
2652;SDS011;1336;48.692;9.144;2022-09-01T05:53:15;21.73;;;19.53;;
2652;SDS011;1336;48.692;9.144;2022-09-01T05:54:07;22.17;;;20.23;;
2652;SDS011;1336;48.692;9.144;2022-09-01T05:54:59;21.23;;;19.20;;
2652;SDS011;1336;48.692;9.144;2022-09-01T05:55:51;22.83;;;20.63;;
2652;SDS011;1336;48.692;9.144;2022-09-01T05:56:45;22.15;;;20.10;;
2652;SDS011;1336;48.692;9.144;2022-09-01T05:57:37;23.13;;;20.92;;
2652;SDS011;1336;48.692;9.144;2022-09-01T05:58:29;22.38;;;20.48;;
2652;SDS011;1336;48.692;9.144;2022-09-01T05:59:21;21.75;;;19.70;;
2652;SDS011;1336;48.692;9.144;2022-09-01T06:00:13;22.83;;;20.63;;
2652;SDS011;1336;48.692;9.144;2022-09-01T06:01:07;23.20;;;20.90;;
2652;SDS011;1336;48.692;9.144;2022-09-01T06:02:01;23.33;;;21.05;;
2652;SDS011;1336;48.692;9.144;2022-09-01T06:02:54;21.48;;;19.48;;
2652;SDS011;1336;48.692;9.144;2022-09-01T06:03:48;23.13;;;21.10;;
2652;SDS011;1336;48.692;9.144;2022-09-01T06:04:43;22.83;;;20.77;;
2652;SDS011;1336;48.692;9.144;2022-09-01T06:05:34;22.90;;;20.70;;
2652;SDS011;1336;48.692;9.144;2022-09-01T06:06:27;21.33;;;19.33;;
2652;SDS011;1336;48.692;9.144;2022-09-01T06:07:19;22.38;;;20.17;;
2652;SDS011;1336;48.692;9.144;2022-09-01T06:08:12;22.25;;;20.25;;
2652;SDS011;1336;48.692;9.144;2022-09-01T06:09:04;24.02;;;21.40;;
2652;SDS011;1336;48.692;9.144;2022-09-01T06:09:56;22.23;;;20.15;;
2652;SDS011;1336;48.692;9.144;2022-09-01T06:10:49;23.65;;;21.35;;
2652;SDS011;1336;48.692;9.144;2022-09-01T06:11:41;22.27;;;20.10;;
2652;SDS011;1336;48.692;9.144;2022-09-01T06:12:32;22.80;;;20.60;;
2652;SDS011;1336;48.692;9.144;2022-09-01T06:13:23;22.65;;;20.45;;
2652;SDS011;1336;48.692;9.144;2022-09-01T06:14:15;22.00;;;19.90;;
2652;SDS011;1336;48.692;9.144;2022-09-01T06:15:08;21.85;;;19.75;;
2652;SDS011;1336;48.692;9.144;2022-09-01T06:16:04;21.92;;;19.95;;
2652;SDS011;1336;48.692;9.144;2022-09-01T06:16:58;22.90;;;20.67;;
2652;SDS011;1336;48.692;9.144;2022-09-01T06:17:51;20.73;;;18.83;;
2652;SDS011;1336;48.692;9.144;2022-09-01T06:18:43;20.73;;;18.73;;
2652;SDS011;1336;48.692;9.144;2022-09-01T06:19:34;22.37;;;20.30;;
2652;SDS011;1336;48.692;9.144;2022-09-01T06:20:26;21.60;;;19.40;;
2652;SDS011;1336;48.692;9.144;2022-09-01T06:21:19;21.95;;;19.80;;
2652;SDS011;1336;48.692;9.144;2022-09-01T06:22:13;22.25;;;20.23;;
2652;SDS011;1336;48.692;9.144;2022-09-01T06:23:05;21.75;;;19.52;;
2652;SDS011;1336;48.692;9.144;2022-09-01T06:23:57;22.15;;;19.65;;
2652;SDS011;1336;48.692;9.144;2022-09-01T06:24:48;20.58;;;18.58;;
2652;SDS011;1336;48.692;9.144;2022-09-01T06:25:41;21.23;;;19.17;;
2652;SDS011;1336;48.692;9.144;2022-09-01T06:26:34;21.58;;;19.38;;
2652;SDS011;1336;48.692;9.144;2022-09-01T06:27:27;20.17;;;18.17;;
2652;SDS011;1336;48.692;9.144;2022-09-01T06:28:18;20.57;;;18.77;;
2652;SDS011;1336;48.692;9.144;2022-09-01T06:29:13;20.83;;;18.88;;
2652;SDS011;1336;48.692;9.144;2022-09-01T06:30:04;20.55;;;18.67;;
2652;SDS011;1336;48.692;9.144;2022-09-01T06:31:06;19.85;;;17.85;;
2652;SDS011;1336;48.692;9.144;2022-09-01T06:31:58;20.67;;;18.80;;
2652;SDS011;1336;48.692;9.144;2022-09-01T06:32:52;21.40;;;19.48;;
2652;SDS011;1336;48.692;9.144;2022-09-01T06:33:43;20.10;;;18.23;;
2652;SDS011;1336;48.692;9.144;2022-09-01T06:34:37;19.70;;;17.77;;
2652;SDS011;1336;48.692;9.144;2022-09-01T06:35:29;21.33;;;19.27;;
2652;SDS011;1336;48.692;9.144;2022-09-01T06:36:22;20.63;;;18.55;;
2652;SDS011;1336;48.692;9.144;2022-09-01T06:37:15;20.63;;;18.77;;
2652;SDS011;1336;48.692;9.144;2022-09-01T06:38:11;20.50;;;18.60;;
2652;SDS011;1336;48.692;9.144;2022-09-01T06:39:03;20.15;;;18.27;;
2652;SDS011;1336;48.692;9.144;2022-09-01T06:39:55;20.80;;;18.77;;
2652;SDS011;1336;48.692;9.144;2022-09-01T06:40:46;20.40;;;18.43;;
2652;SDS011;1336;48.692;9.144;2022-09-01T06:41:38;20.17;;;18.33;;
2652;SDS011;1336;48.692;9.144;2022-09-01T06:42:29;21.37;;;19.20;;
2652;SDS011;1336;48.692;9.144;2022-09-01T06:43:24;20.83;;;18.73;;
2652;SDS011;1336;48.692;9.144;2022-09-01T06:44:15;20.53;;;18.80;;
2652;SDS011;1336;48.692;9.144;2022-09-01T06:45:11;21.10;;;19.00;;
2652;SDS011;1336;48.692;9.144;2022-09-01T06:46:02;19.88;;;17.83;;
2652;SDS011;1336;48.692;9.144;2022-09-01T06:46:53;19.30;;;17.30;;
2652;SDS011;1336;48.692;9.144;2022-09-01T06:47:45;21.03;;;18.90;;
2652;SDS011;1336;48.692;9.144;2022-09-01T06:48:41;21.55;;;19.27;;
2652;SDS011;1336;48.692;9.144;2022-09-01T06:49:35;20.10;;;17.83;;
2652;SDS011;1336;48.692;9.144;2022-09-01T06:50:29;20.00;;;17.90;;
2652;SDS011;1336;48.692;9.144;2022-09-01T06:51:20;19.33;;;17.50;;
2652;SDS011;1336;48.692;9.144;2022-09-01T06:52:13;17.77;;;16.25;;
2652;SDS011;1336;48.692;9.144;2022-09-01T06:53:05;22.70;;;18.45;;
2652;SDS011;1336;48.692;9.144;2022-09-01T06:53:59;19.15;;;17.52;;
2652;SDS011;1336;48.692;9.144;2022-09-01T06:54:51;18.42;;;16.75;;
2652;SDS011;1336;48.692;9.144;2022-09-01T06:55:43;18.95;;;17.10;;
2652;SDS011;1336;48.692;9.144;2022-09-01T06:56:37;19.92;;;17.98;;
2652;SDS011;1336;48.692;9.144;2022-09-01T06:57:29;19.60;;;17.80;;
2652;SDS011;1336;48.692;9.144;2022-09-01T06:58:20;19.77;;;17.77;;
2652;SDS011;1336;48.692;9.144;2022-09-01T06:59:14;19.85;;;17.80;;
2652;SDS011;1336;48.692;9.144;2022-09-01T07:00:05;19.53;;;17.63;;
2652;SDS011;1336;48.692;9.144;2022-09-01T07:01:07;18.45;;;16.77;;
2652;SDS011;1336;48.692;9.144;2022-09-01T07:02:03;19.30;;;17.45;;
2652;SDS011;1336;48.692;9.144;2022-09-01T07:02:55;18.77;;;16.83;;
2652;SDS011;1336;48.692;9.144;2022-09-01T07:03:49;19.63;;;17.75;;
2652;SDS011;1336;48.692;9.144;2022-09-01T07:04:42;17.88;;;16.15;;
2652;SDS011;1336;48.692;9.144;2022-09-01T07:05:34;19.45;;;17.55;;
2652;SDS011;1336;48.692;9.144;2022-09-01T07:06:28;20.92;;;18.63;;
2652;SDS011;1336;48.692;9.144;2022-09-01T07:07:20;20.50;;;17.85;;
2652;SDS011;1336;48.692;9.144;2022-09-01T07:08:12;19.03;;;17.00;;
2652;SDS011;1336;48.692;9.144;2022-09-01T07:09:08;21.85;;;17.00;;
2652;SDS011;1336;48.692;9.144;2022-09-01T07:10:01;18.85;;;16.48;;
2652;SDS011;1336;48.692;9.144;2022-09-01T07:10:53;18.20;;;16.30;;
2652;SDS011;1336;48.692;9.144;2022-09-01T07:11:48;18.27;;;16.50;;
2652;SDS011;1336;48.692;9.144;2022-09-01T07:12:41;20.25;;;16.80;;
2652;SDS011;1336;48.692;9.144;2022-09-01T07:13:34;19.20;;;17.30;;
2652;SDS011;1336;48.692;9.144;2022-09-01T07:14:27;18.73;;;17.13;;
2652;SDS011;1336;48.692;9.144;2022-09-01T07:15:18;18.13;;;16.57;;
2652;SDS011;1336;48.692;9.144;2022-09-01T07:16:14;18.35;;;16.52;;
2652;SDS011;1336;48.692;9.144;2022-09-01T07:17:10;18.17;;;16.58;;
2652;SDS011;1336;48.692;9.144;2022-09-01T07:18:03;19.25;;;17.42;;
2652;SDS011;1336;48.692;9.144;2022-09-01T07:18:57;16.08;;;14.77;;
2652;SDS011;1336;48.692;9.144;2022-09-01T07:19:50;20.50;;;18.70;;
2652;SDS011;1336;48.692;9.144;2022-09-01T07:20:43;18.02;;;16.15;;
2652;SDS011;1336;48.692;9.144;2022-09-01T07:21:36;19.05;;;17.27;;
2652;SDS011;1336;48.692;9.144;2022-09-01T07:22:27;19.23;;;17.53;;
2652;SDS011;1336;48.692;9.144;2022-09-01T07:23:19;18.67;;;17.08;;
2652;SDS011;1336;48.692;9.144;2022-09-01T07:24:10;19.55;;;17.75;;
2652;SDS011;1336;48.692;9.144;2022-09-01T07:25:05;19.23;;;17.40;;
2652;SDS011;1336;48.692;9.144;2022-09-01T07:26:04;18.33;;;16.52;;
2652;SDS011;1336;48.692;9.144;2022-09-01T07:26:57;18.27;;;16.58;;
2652;SDS011;1336;48.692;9.144;2022-09-01T07:27:49;20.23;;;17.00;;
2652;SDS011;1336;48.692;9.144;2022-09-01T07:28:40;17.98;;;16.48;;
2652;SDS011;1336;48.692;9.144;2022-09-01T07:29:32;17.73;;;16.10;;
2652;SDS011;1336;48.692;9.144;2022-09-01T07:30:24;18.63;;;16.80;;
2652;SDS011;1336;48.692;9.144;2022-09-01T07:31:16;18.42;;;16.83;;
2652;SDS011;1336;48.692;9.144;2022-09-01T07:32:09;17.45;;;15.75;;
2652;SDS011;1336;48.692;9.144;2022-09-01T07:33:02;17.90;;;16.30;;
2652;SDS011;1336;48.692;9.144;2022-09-01T07:33:57;17.30;;;15.60;;
2652;SDS011;1336;48.692;9.144;2022-09-01T07:34:53;17.55;;;15.85;;
2652;SDS011;1336;48.692;9.144;2022-09-01T07:35:44;17.97;;;16.20;;
2652;SDS011;1336;48.692;9.144;2022-09-01T07:36:36;17.52;;;15.93;;
2652;SDS011;1336;48.692;9.144;2022-09-01T07:37:27;17.25;;;15.75;;
2652;SDS011;1336;48.692;9.144;2022-09-01T07:38:21;18.33;;;15.57;;
2652;SDS011;1336;48.692;9.144;2022-09-01T07:39:12;17.88;;;16.15;;
2652;SDS011;1336;48.692;9.144;2022-09-01T07:40:06;18.50;;;16.70;;
2652;SDS011;1336;48.692;9.144;2022-09-01T07:40:58;17.23;;;15.65;;
2652;SDS011;1336;48.692;9.144;2022-09-01T07:41:50;17.73;;;16.10;;
2652;SDS011;1336;48.692;9.144;2022-09-01T07:42:42;15.18;;;13.77;;
2652;SDS011;1336;48.692;9.144;2022-09-01T07:43:34;15.55;;;13.88;;
2652;SDS011;1336;48.692;9.144;2022-09-01T07:44:26;16.27;;;13.90;;
2652;SDS011;1336;48.692;9.144;2022-09-01T07:45:18;15.55;;;14.02;;
2652;SDS011;1336;48.692;9.144;2022-09-01T07:46:09;17.40;;;14.90;;
2652;SDS011;1336;48.692;9.144;2022-09-01T07:47:01;16.10;;;14.57;;
2652;SDS011;1336;48.692;9.144;2022-09-01T07:47:53;15.15;;;13.65;;
2652;SDS011;1336;48.692;9.144;2022-09-01T07:48:45;15.32;;;13.93;;
2652;SDS011;1336;48.692;9.144;2022-09-01T07:49:38;15.70;;;13.13;;
2652;SDS011;1336;48.692;9.144;2022-09-01T07:50:30;14.80;;;13.35;;
2652;SDS011;1336;48.692;9.144;2022-09-01T07:51:22;14.10;;;12.90;;
2652;SDS011;1336;48.692;9.144;2022-09-01T07:52:15;14.48;;;13.18;;
2652;SDS011;1336;48.692;9.144;2022-09-01T07:53:07;15.65;;;14.05;;
2652;SDS011;1336;48.692;9.144;2022-09-01T07:54:00;14.43;;;13.23;;
2652;SDS011;1336;48.692;9.144;2022-09-01T07:54:51;15.65;;;14.35;;
2652;SDS011;1336;48.692;9.144;2022-09-01T07:55:43;14.52;;;13.32;;
2652;SDS011;1336;48.692;9.144;2022-09-01T07:56:35;16.15;;;13.85;;
2652;SDS011;1336;48.692;9.144;2022-09-01T07:57:29;16.35;;;14.90;;
2652;SDS011;1336;48.692;9.144;2022-09-01T07:58:21;16.00;;;14.57;;
2652;SDS011;1336;48.692;9.144;2022-09-01T07:59:14;15.63;;;14.32;;
2652;SDS011;1336;48.692;9.144;2022-09-01T08:00:07;15.98;;;14.68;;
2652;SDS011;1336;48.692;9.144;2022-09-01T08:01:04;16.85;;;15.45;;
2652;SDS011;1336;48.692;9.144;2022-09-01T08:01:56;15.68;;;14.27;;
2652;SDS011;1336;48.692;9.144;2022-09-01T08:02:48;15.63;;;14.43;;
2652;SDS011;1336;48.692;9.144;2022-09-01T08:03:40;15.38;;;13.98;;
2652;SDS011;1336;48.692;9.144;2022-09-01T08:04:32;15.27;;;13.98;;
2652;SDS011;1336;48.692;9.144;2022-09-01T08:05:24;17.58;;;13.93;;
2652;SDS011;1336;48.692;9.144;2022-09-01T08:06:18;14.68;;;13.52;;
2652;SDS011;1336;48.692;9.144;2022-09-01T08:07:11;15.07;;;13.70;;
2652;SDS011;1336;48.692;9.144;2022-09-01T08:08:03;15.82;;;14.32;;
2652;SDS011;1336;48.692;9.144;2022-09-01T08:08:55;14.93;;;13.53;;
2652;SDS011;1336;48.692;9.144;2022-09-01T08:09:48;15.90;;;14.40;;
2652;SDS011;1336;48.692;9.144;2022-09-01T08:10:39;14.60;;;13.17;;
2652;SDS011;1336;48.692;9.144;2022-09-01T08:11:32;15.23;;;13.65;;
2652;SDS011;1336;48.692;9.144;2022-09-01T08:12:23;14.77;;;13.25;;
2652;SDS011;1336;48.692;9.144;2022-09-01T08:13:15;16.83;;;15.18;;
2652;SDS011;1336;48.692;9.144;2022-09-01T08:14:06;14.93;;;13.38;;
2652;SDS011;1336;48.692;9.144;2022-09-01T08:14:58;15.55;;;14.05;;
2652;SDS011;1336;48.692;9.144;2022-09-01T08:15:50;16.00;;;14.18;;
2652;SDS011;1336;48.692;9.144;2022-09-01T08:16:42;15.38;;;13.88;;
2652;SDS011;1336;48.692;9.144;2022-09-01T08:17:33;23.83;;;14.97;;
2652;SDS011;1336;48.692;9.144;2022-09-01T08:18:26;16.30;;;14.80;;
2652;SDS011;1336;48.692;9.144;2022-09-01T08:19:17;15.10;;;13.60;;
2652;SDS011;1336;48.692;9.144;2022-09-01T08:20:10;16.40;;;14.70;;
2652;SDS011;1336;48.692;9.144;2022-09-01T08:21:05;15.98;;;14.43;;
2652;SDS011;1336;48.692;9.144;2022-09-01T08:21:57;15.35;;;13.85;;
2652;SDS011;1336;48.692;9.144;2022-09-01T08:22:48;15.17;;;13.57;;
2652;SDS011;1336;48.692;9.144;2022-09-01T08:23:40;16.48;;;14.18;;
2652;SDS011;1336;48.692;9.144;2022-09-01T08:24:31;13.40;;;12.20;;
2652;SDS011;1336;48.692;9.144;2022-09-01T08:25:23;15.27;;;13.77;;
2652;SDS011;1336;48.692;9.144;2022-09-01T08:26:16;15.02;;;13.50;;
2652;SDS011;1336;48.692;9.144;2022-09-01T08:27:09;14.07;;;12.80;;
2652;SDS011;1336;48.692;9.144;2022-09-01T08:28:00;15.07;;;13.60;;
2652;SDS011;1336;48.692;9.144;2022-09-01T08:28:52;14.50;;;13.02;;
2652;SDS011;1336;48.692;9.144;2022-09-01T08:29:44;12.95;;;11.73;;
2652;SDS011;1336;48.692;9.144;2022-09-01T08:30:37;14.32;;;12.93;;
2652;SDS011;1336;48.692;9.144;2022-09-01T08:31:29;13.52;;;12.32;;
2652;SDS011;1336;48.692;9.144;2022-09-01T08:32:21;14.55;;;13.15;;
2652;SDS011;1336;48.692;9.144;2022-09-01T08:33:12;14.27;;;13.03;;
2652;SDS011;1336;48.692;9.144;2022-09-01T08:34:04;15.13;;;13.63;;
2652;SDS011;1336;48.692;9.144;2022-09-01T08:34:55;13.00;;;11.90;;
2652;SDS011;1336;48.692;9.144;2022-09-01T08:35:47;13.18;;;11.90;;
2652;SDS011;1336;48.692;9.144;2022-09-01T08:36:40;13.02;;;11.93;;
2652;SDS011;1336;48.692;9.144;2022-09-01T08:37:31;14.50;;;13.18;;
2652;SDS011;1336;48.692;9.144;2022-09-01T08:38:22;11.80;;;10.67;;
2652;SDS011;1336;48.692;9.144;2022-09-01T08:39:14;13.40;;;12.30;;
2652;SDS011;1336;48.692;9.144;2022-09-01T08:40:05;12.53;;;11.53;;
2652;SDS011;1336;48.692;9.144;2022-09-01T08:40:58;13.82;;;12.57;;
2652;SDS011;1336;48.692;9.144;2022-09-01T08:41:51;13.02;;;11.88;;
2652;SDS011;1336;48.692;9.144;2022-09-01T08:42:54;12.80;;;11.70;;
2652;SDS011;1336;48.692;9.144;2022-09-01T08:43:55;12.88;;;11.77;;
2652;SDS011;1336;48.692;9.144;2022-09-01T08:44:57;11.75;;;10.75;;
2652;SDS011;1336;48.692;9.144;2022-09-01T08:45:56;13.75;;;12.55;;
2652;SDS011;1336;48.692;9.144;2022-09-01T08:46:52;13.00;;;11.68;;
2652;SDS011;1336;48.692;9.144;2022-09-01T08:47:47;12.35;;;11.30;;
2652;SDS011;1336;48.692;9.144;2022-09-01T08:48:42;13.52;;;12.20;;
2652;SDS011;1336;48.692;9.144;2022-09-01T08:49:36;12.23;;;11.13;;
2652;SDS011;1336;48.692;9.144;2022-09-01T08:50:29;11.95;;;10.95;;
2652;SDS011;1336;48.692;9.144;2022-09-01T08:51:24;12.65;;;11.55;;
2652;SDS011;1336;48.692;9.144;2022-09-01T08:52:25;13.02;;;11.93;;
2652;SDS011;1336;48.692;9.144;2022-09-01T08:53:24;14.57;;;13.18;;
2652;SDS011;1336;48.692;9.144;2022-09-01T08:54:22;12.52;;;11.50;;
2652;SDS011;1336;48.692;9.144;2022-09-01T08:55:17;13.52;;;12.32;;
2652;SDS011;1336;48.692;9.144;2022-09-01T08:56:14;12.18;;;11.07;;
2652;SDS011;1336;48.692;9.144;2022-09-01T08:57:10;12.13;;;11.13;;
2652;SDS011;1336;48.692;9.144;2022-09-01T08:58:05;10.95;;;9.95;;
2652;SDS011;1336;48.692;9.144;2022-09-01T08:59:01;10.88;;;9.88;;
2652;SDS011;1336;48.692;9.144;2022-09-01T08:59:52;11.90;;;10.93;;
2652;SDS011;1336;48.692;9.144;2022-09-01T09:00:46;12.70;;;11.60;;
2652;SDS011;1336;48.692;9.144;2022-09-01T09:01:45;12.43;;;11.20;;
2652;SDS011;1336;48.692;9.144;2022-09-01T09:02:50;12.57;;;11.43;;
2652;SDS011;1336;48.692;9.144;2022-09-01T09:04:08;11.63;;;10.65;;
2652;SDS011;1336;48.692;9.144;2022-09-01T09:05:18;13.15;;;11.75;;
2652;SDS011;1336;48.692;9.144;2022-09-01T09:06:22;12.85;;;11.70;;
2652;SDS011;1336;48.692;9.144;2022-09-01T09:07:28;13.02;;;10.65;;
2652;SDS011;1336;48.692;9.144;2022-09-01T09:08:51;12.40;;;11.38;;
2652;SDS011;1336;48.692;9.144;2022-09-01T09:09:48;11.85;;;10.80;;
2652;SDS011;1336;48.692;9.144;2022-09-01T09:10:45;11.27;;;10.35;;
2652;SDS011;1336;48.692;9.144;2022-09-01T09:11:54;11.15;;;9.68;;
2652;SDS011;1336;48.692;9.144;2022-09-01T09:12:59;10.75;;;9.85;;
2652;SDS011;1336;48.692;9.144;2022-09-01T09:13:58;10.63;;;9.73;;
2652;SDS011;1336;48.692;9.144;2022-09-01T09:15:08;11.10;;;10.20;;
2652;SDS011;1336;48.692;9.144;2022-09-01T09:16:08;10.85;;;9.73;;
2652;SDS011;1336;48.692;9.144;2022-09-01T09:17:03;10.90;;;9.95;;
2652;SDS011;1336;48.692;9.144;2022-09-01T09:17:55;9.70;;;8.90;;
2652;SDS011;1336;48.692;9.144;2022-09-01T09:18:55;10.23;;;9.23;;
2652;SDS011;1336;48.692;9.144;2022-09-01T09:19:51;12.70;;;9.80;;
2652;SDS011;1336;48.692;9.144;2022-09-01T09:20:43;10.35;;;9.45;;
2652;SDS011;1336;48.692;9.144;2022-09-01T09:21:36;10.55;;;9.55;;
2652;SDS011;1336;48.692;9.144;2022-09-01T09:22:29;10.40;;;9.50;;
2652;SDS011;1336;48.692;9.144;2022-09-01T09:23:23;10.57;;;9.63;;
2652;SDS011;1336;48.692;9.144;2022-09-01T09:24:20;10.60;;;9.68;;
2652;SDS011;1336;48.692;9.144;2022-09-01T09:25:17;10.80;;;9.60;;
2652;SDS011;1336;48.692;9.144;2022-09-01T09:26:08;11.70;;;10.60;;
2652;SDS011;1336;48.692;9.144;2022-09-01T09:26:59;10.98;;;10.07;;
2652;SDS011;1336;48.692;9.144;2022-09-01T09:27:51;11.93;;;10.93;;
2652;SDS011;1336;48.692;9.144;2022-09-01T09:28:42;10.90;;;10.00;;
2652;SDS011;1336;48.692;9.144;2022-09-01T09:29:36;11.05;;;10.25;;
2652;SDS011;1336;48.692;9.144;2022-09-01T09:30:28;9.95;;;7.68;;
2652;SDS011;1336;48.692;9.144;2022-09-01T09:31:28;8.48;;;7.65;;
2652;SDS011;1336;48.692;9.144;2022-09-01T09:32:23;8.40;;;7.78;;
2652;SDS011;1336;48.692;9.144;2022-09-01T09:33:35;7.80;;;7.20;;
2652;SDS011;1336;48.692;9.144;2022-09-01T09:34:29;7.30;;;6.70;;
2652;SDS011;1336;48.692;9.144;2022-09-01T09:35:23;8.70;;;7.90;;
2652;SDS011;1336;48.692;9.144;2022-09-01T09:36:18;9.85;;;9.05;;
2652;SDS011;1336;48.692;9.144;2022-09-01T09:37:22;10.27;;;9.43;;
2652;SDS011;1336;48.692;9.144;2022-09-01T09:38:19;9.35;;;8.57;;
2652;SDS011;1336;48.692;9.144;2022-09-01T09:39:17;9.73;;;8.90;;
2652;SDS011;1336;48.692;9.144;2022-09-01T09:40:10;9.23;;;8.43;;
2652;SDS011;1336;48.692;9.144;2022-09-01T09:41:04;9.05;;;8.23;;
2652;SDS011;1336;48.692;9.144;2022-09-01T09:42:01;8.10;;;7.50;;
2652;SDS011;1336;48.692;9.144;2022-09-01T09:42:59;8.65;;;7.75;;
2652;SDS011;1336;48.692;9.144;2022-09-01T09:43:54;8.05;;;7.45;;
2652;SDS011;1336;48.692;9.144;2022-09-01T09:44:48;7.90;;;7.20;;
2652;SDS011;1336;48.692;9.144;2022-09-01T09:45:41;7.35;;;6.70;;
2652;SDS011;1336;48.692;9.144;2022-09-01T09:46:34;9.17;;;8.37;;
2652;SDS011;1336;48.692;9.144;2022-09-01T09:47:35;8.98;;;8.18;;
2652;SDS011;1336;48.692;9.144;2022-09-01T09:48:28;8.40;;;7.70;;
2652;SDS011;1336;48.692;9.144;2022-09-01T09:49:23;8.60;;;7.85;;
2652;SDS011;1336;48.692;9.144;2022-09-01T09:50:21;9.00;;;8.20;;
2652;SDS011;1336;48.692;9.144;2022-09-01T09:51:15;8.57;;;7.85;;
2652;SDS011;1336;48.692;9.144;2022-09-01T09:52:13;9.45;;;8.65;;
2652;SDS011;1336;48.692;9.144;2022-09-01T09:53:15;9.05;;;8.35;;
2652;SDS011;1336;48.692;9.144;2022-09-01T09:54:20;7.00;;;6.50;;
2652;SDS011;1336;48.692;9.144;2022-09-01T09:55:19;7.50;;;6.90;;
2652;SDS011;1336;48.692;9.144;2022-09-01T09:56:15;8.98;;;8.10;;
2652;SDS011;1336;48.692;9.144;2022-09-01T09:57:11;8.63;;;7.95;;
2652;SDS011;1336;48.692;9.144;2022-09-01T09:58:08;8.98;;;8.07;;
2652;SDS011;1336;48.692;9.144;2022-09-01T09:59:01;8.48;;;7.68;;
2652;SDS011;1336;48.692;9.144;2022-09-01T10:00:14;9.65;;;8.75;;
2652;SDS011;1336;48.692;9.144;2022-09-01T10:01:10;9.40;;;8.60;;
2652;SDS011;1336;48.692;9.144;2022-09-01T10:02:13;8.50;;;7.82;;
2652;SDS011;1336;48.692;9.144;2022-09-01T10:03:11;9.93;;;9.13;;
2652;SDS011;1336;48.692;9.144;2022-09-01T10:04:04;9.80;;;8.80;;
2652;SDS011;1336;48.692;9.144;2022-09-01T10:04:54;8.77;;;8.07;;
2652;SDS011;1336;48.692;9.144;2022-09-01T10:05:47;8.95;;;8.07;;
2652;SDS011;1336;48.692;9.144;2022-09-01T10:06:41;8.65;;;7.95;;
2652;SDS011;1336;48.692;9.144;2022-09-01T10:07:35;8.30;;;7.63;;
2652;SDS011;1336;48.692;9.144;2022-09-01T10:08:38;7.90;;;7.40;;
2652;SDS011;1336;48.692;9.144;2022-09-01T10:09:34;7.70;;;7.10;;
2652;SDS011;1336;48.692;9.144;2022-09-01T10:10:29;7.65;;;6.95;;
2652;SDS011;1336;48.692;9.144;2022-09-01T10:11:28;6.50;;;5.95;;
2652;SDS011;1336;48.692;9.144;2022-09-01T10:12:23;6.90;;;6.30;;
2652;SDS011;1336;48.692;9.144;2022-09-01T10:13:16;6.32;;;5.93;;
2652;SDS011;1336;48.692;9.144;2022-09-01T10:14:10;6.60;;;6.00;;
2652;SDS011;1336;48.692;9.144;2022-09-01T10:15:07;7.03;;;6.53;;
2652;SDS011;1336;48.692;9.144;2022-09-01T10:15:59;6.25;;;5.75;;
2652;SDS011;1336;48.692;9.144;2022-09-01T10:16:53;6.45;;;5.85;;
2652;SDS011;1336;48.692;9.144;2022-09-01T10:17:50;6.25;;;5.65;;
2652;SDS011;1336;48.692;9.144;2022-09-01T10:18:44;6.00;;;5.60;;
2652;SDS011;1336;48.692;9.144;2022-09-01T10:19:36;6.13;;;5.00;;
2652;SDS011;1336;48.692;9.144;2022-09-01T10:20:31;6.30;;;5.50;;
2652;SDS011;1336;48.692;9.144;2022-09-01T10:21:27;5.45;;;5.05;;
2652;SDS011;1336;48.692;9.144;2022-09-01T10:22:23;5.55;;;5.15;;
2652;SDS011;1336;48.692;9.144;2022-09-01T10:23:14;5.90;;;5.40;;
2652;SDS011;1336;48.692;9.144;2022-09-01T10:24:11;5.30;;;4.90;;
2652;SDS011;1336;48.692;9.144;2022-09-01T10:25:07;6.18;;;5.68;;
2652;SDS011;1336;48.692;9.144;2022-09-01T10:26:04;5.40;;;4.90;;
2652;SDS011;1336;48.692;9.144;2022-09-01T10:26:59;5.88;;;5.47;;
2652;SDS011;1336;48.692;9.144;2022-09-01T10:27:54;6.03;;;5.43;;
2652;SDS011;1336;48.692;9.144;2022-09-01T10:28:55;6.30;;;5.80;;